Time;durP1;ratioP1;P1;durP2;ratioP2;P2;SDS_P1;SDS_P2;PMS_P1;PMS_P2;Temp;Humidity;BMP_temperature;BMP_pressure;BME280_temperature;BME280_humidity;BME280_pressure;Samples;Min_cycle;Max_cycle;Signal;HPM_P1;HPM_P2
2022/06/17 00:00:48;;;;;;;;;;;;;;;-146.27;100.00;64033.13;5091187;28;19916;-38
2022/06/17 00:03:13;;;;;;;;;;;;;;;-146.27;100.00;64033.13;5089514;28;20379;-38
2022/06/17 00:05:38;;;;;;;;;;;;;;;-146.27;100.00;64033.13;5091160;28;19947;-39
2022/06/17 00:08:04;;;;;;;;;;;;;;;-146.27;100.00;64033.13;5091663;28;19912;-37
2022/06/17 00:10:30;;;;;;;;;;;;;;;-146.27;100.00;64033.13;5092534;28;20368;-38
2022/06/17 00:12:55;;;;;;;;;;;;;;;-146.27;100.00;64033.13;5094989;28;19919;-37
2022/06/17 00:15:21;;;;;;;;;;;;;;;-146.27;100.00;64033.13;5094994;28;20006;-37
2022/06/17 00:17:58;;;;;;;;;;;;;;;-146.27;100.00;64033.13;5095380;28;19916;-38
2022/06/17 00:20:24;;;;;;;;;;;;;;;-146.27;100.00;64033.13;5095083;28;19916;-37
2022/06/17 00:22:49;;;;;;;;;;;;;;;-146.27;100.00;64033.13;5094856;28;20260;-38
2022/06/17 00:25:20;;;;;;;;;;;;;;;-146.27;100.00;64033.13;5094587;28;20351;-38
2022/06/17 00:27:46;;;;;;;;;;;;;;;-146.27;100.00;64033.13;5094962;28;19912;-38
2022/06/17 00:30:17;;;;;;;;;;;;;;;-146.27;100.00;64033.13;5095082;28;19912;-38
2022/06/17 00:32:42;;;;;;;;;;;;;;;-146.27;100.00;64033.13;5094943;28;19916;-38
2022/06/17 00:35:07;;;;;;;;;;;;;;;-146.27;100.00;64033.13;5094794;28;19981;-38
2022/06/17 00:37:33;;;;;;;;;;;;;;;-146.27;100.00;64033.13;5095030;28;19935;-38
2022/06/17 00:39:58;;;;;;;;;;;;;;;-146.27;100.00;64033.13;5095109;28;19989;-38
2022/06/17 00:42:23;;;;;;;;;;;;;;;-146.27;100.00;64033.13;5094826;28;19913;-37
2022/06/17 00:44:49;;;;;;;;;;;;;;;-146.27;100.00;64033.13;5095111;28;20382;-38
2022/06/17 00:47:30;;;;;;;;;;;;;;;-146.27;100.00;64033.13;5094958;28;19981;-38
2022/06/17 00:50:05;;;;;;;;;;;;;;;-146.27;100.00;64033.13;5094921;28;20346;-38
2022/06/17 00:52:36;;;;;;;;;;;;;;;-146.27;100.00;64033.13;5094481;28;19919;-38
2022/06/17 00:55:05;;;;;;;;;;;;;;;-146.27;100.00;64033.13;5094465;28;19916;-37
2022/06/17 00:57:36;;;;;;;;;;;;;;;-146.27;100.00;64033.13;5093699;28;19912;-38
2022/06/17 01:00:04;;;;;;;;;;;;;;;-146.27;100.00;64033.13;5094774;28;19920;-38
2022/06/17 01:02:33;;;;;;;;;;;;;;;-146.27;100.00;64033.13;5094777;28;19935;-38
2022/06/17 01:05:00;;;;;;;;;;;;;;;-146.27;100.00;64033.13;5094433;28;20050;-38
2022/06/17 01:07:29;;;;;;;;;;;;;;;-146.27;100.00;64033.13;5094198;28;19923;-38
2022/06/17 01:09:57;;;;;;;;;;;;;;;-146.27;100.00;64033.13;5094638;28;19916;-38
2022/06/17 01:12:25;;;;;;;;;;;;;;;-146.27;100.00;64033.13;5093905;28;19935;-39
2022/06/17 01:14:51;;;;;;;;;;;;;;;-146.27;100.00;64033.13;5093623;28;19912;-39
2022/06/17 01:17:18;;;;;;;;;;;;;;;-146.27;100.00;64033.13;5093057;28;19919;-38
2022/06/17 01:19:45;;;;;;;;;;;;;;;-146.27;100.00;64033.13;5093923;28;19919;-38
2022/06/17 01:22:11;;;;;;;;;;;;;;;-146.27;100.00;64033.13;5111494;28;19912;-38
2022/06/17 01:24:36;;;;;;;;;;;;;;;-146.27;100.00;64033.13;5114203;28;19916;-38
2022/06/17 01:27:02;;;;;;;;;;;;;;;-146.27;100.00;64033.13;5114313;28;19965;-37
2022/06/17 01:29:27;;;;;;;;;;;;;;;-146.27;100.00;64033.13;5104701;28;19920;-37
2022/06/17 01:31:54;;;;;;;;;;;;;;;-146.27;100.00;64033.13;5093796;28;19973;-38
2022/06/17 01:34:20;;;;;;;;;;;;;;;-146.27;100.00;64033.13;5093701;28;19924;-38
2022/06/17 01:36:46;;;;;;;;;;;;;;;-146.27;100.00;64033.13;5093483;28;19946;-38
2022/06/17 01:39:13;;;;;;;;;;;;;;;-146.27;100.00;64033.13;5093369;28;20015;-37
2022/06/17 01:41:39;;;;;;;;;;;;;;;-146.27;100.00;64033.13;5093398;28;19924;-38
2022/06/17 01:44:09;;;;;;;;;;;;;;;-146.27;100.00;64033.13;5093773;28;19912;-38
2022/06/17 01:46:39;;;;;;;;;;;;;;;-146.27;100.00;64033.13;5093813;28;19974;-38
2022/06/17 01:49:04;;;;;;;;;;;;;;;-146.27;100.00;64033.13;5093290;28;19913;-37
2022/06/17 01:51:32;;;;;;;;;;;;;;;-146.27;100.00;64033.13;5093168;28;20010;-37
2022/06/17 01:53:59;;;;;;;;;;;;;;;-146.27;100.00;64033.13;5093636;28;19970;-38
2022/06/17 01:56:28;;;;;;;;;;;;;;;-146.27;100.00;64033.13;5092946;28;20269;-38
2022/06/17 01:59:06;;;;;;;;;;;;;;;-146.27;100.00;64033.13;5093521;28;19912;-38
2022/06/17 02:01:32;;;;;;;;;;;;;;;-146.27;100.00;64033.13;5092698;28;20011;-38
2022/06/17 02:04:06;;;;;;;;;;;;;;;-146.27;100.00;64033.13;5093169;28;19947;-37
2022/06/17 02:06:34;;;;;;;;;;;;;;;-146.27;100.00;64033.13;5092743;28;20387;-39
2022/06/17 02:09:00;;;;;;;;;;;;;;;-146.27;100.00;64033.13;5091398;28;20014;-38
2022/06/17 02:11:26;;;;;;;;;;;;;;;-146.27;100.00;64033.13;5092200;28;19912;-39
2022/06/17 02:13:51;;;;;;;;;;;;;;;-146.27;100.00;64033.13;5092975;28;20364;-49
2022/06/17 02:16:17;;;;;;;;;;;;;;;-146.27;100.00;64033.13;5092628;28;19912;-38
2022/06/17 02:18:43;;;;;;;;;;;;;;;-146.27;100.00;64033.13;5091318;28;20340;-39
2022/06/17 02:21:19;;;;;;;;;;;;;;;-146.27;100.00;64033.13;5090863;28;20410;-38
2022/06/17 02:23:45;;;;;;;;;;;;;;;-146.27;100.00;64033.13;5092786;28;20015;-39
2022/06/17 02:26:11;;;;;;;;;;;;;;;-146.27;100.00;64033.13;5092752;28;19956;-39
2022/06/17 02:28:37;;;;;;;;;;;;;;;-146.27;100.00;64033.13;5092543;28;20426;-39
2022/06/17 02:31:04;;;;;;;;;;;;;;;-146.27;100.00;64033.13;5091253;28;19947;-38
2022/06/17 02:33:31;;;;;;;;;;;;;;;-146.27;100.00;64033.13;5091944;28;20003;-38
2022/06/17 02:35:56;;;;;;;;;;;;;;;-146.27;100.00;64033.13;5092467;28;19924;-39
2022/06/17 02:38:25;;;;;;;;;;;;;;;-146.27;100.00;64033.13;5092563;28;20011;-39
2022/06/17 02:40:57;;;;;;;;;;;;;;;-146.27;100.00;64033.13;5092496;28;19923;-39
2022/06/17 02:43:30;;;;;;;;;;;;;;;-146.27;100.00;64033.13;5091968;28;19912;-38
2022/06/17 02:45:59;;;;;;;;;;;;;;;-146.27;100.00;64033.13;5092431;28;19912;-39
2022/06/17 02:48:27;;;;;;;;;;;;;;;-146.27;100.00;64033.13;5092513;28;19916;-37
2022/06/17 02:50:54;;;;;;;;;;;;;;;-146.27;100.00;64033.13;5092483;28;19912;-37
2022/06/17 02:53:25;;;;;;;;;;;;;;;-146.27;100.00;64033.13;5091650;28;19912;-38
2022/06/17 02:55:50;;;;;;;;;;;;;;;-146.27;100.00;64033.13;5092151;28;19912;-37
2022/06/17 02:58:34;;;;;;;;;;;;;;;-146.27;100.00;64033.13;5091506;28;19919;-37
2022/06/17 03:01:00;;;;;;;;;;;;;;;-146.27;100.00;64033.13;5091999;28;19916;-38
2022/06/17 03:03:26;;;;;;;;;;;;;;;-146.27;100.00;64033.13;5091904;28;19919;-38
2022/06/17 03:05:51;;;;;;;;;;;;;;;-146.27;100.00;64033.13;5091595;28;19955;-37
2022/06/17 03:08:21;;;;;;;;;;;;;;;-146.27;100.00;64033.13;5091984;28;20300;-37
2022/06/17 03:10:46;;;;;;;;;;;;;;;-146.27;100.00;64033.13;5091976;28;19944;-38
2022/06/17 03:13:14;;;;;;;;;;;;;;;-146.27;100.00;64033.13;5091574;28;20421;-36
2022/06/17 03:15:40;;;;;;;;;;;;;;;-146.27;100.00;64033.13;5091787;28;20006;-38
2022/06/17 03:18:06;;;;;;;;;;;;;;;-146.27;100.00;64033.13;5091919;28;19912;-38
2022/06/17 03:20:34;;;;;;;;;;;;;;;-146.27;100.00;64033.13;5091654;28;19920;-38
2022/06/17 03:23:12;;;;;;;;;;;;;;;-146.27;100.00;64033.13;5091368;28;19912;-38
2022/06/17 03:25:50;;;;;;;;;;;;;;;-146.27;100.00;64033.13;5091585;28;19912;-38
2022/06/17 03:28:19;;;;;;;;;;;;;;;-146.27;100.00;64033.13;5091743;28;19912;-38
2022/06/17 03:31:02;;;;;;;;;;;;;;;-146.27;100.00;64033.13;5091656;28;19912;-36
2022/06/17 03:33:38;;;;;;;;;;;;;;;-146.27;100.00;64033.13;5091501;28;19920;-37
2022/06/17 03:36:08;;;;;;;;;;;;;;;-146.27;100.00;64033.13;5091384;28;19963;-38
2022/06/17 03:38:36;;;;;;;;;;;;;;;-146.27;100.00;64033.13;5091666;28;20006;-38
2022/06/17 03:41:10;;;;;;;;;;;;;;;-146.27;100.00;64033.13;5091424;28;19920;-38
2022/06/17 03:43:42;;;;;;;;;;;;;;;-146.27;100.00;64033.13;5091498;28;19912;-37
2022/06/17 03:46:08;;;;;;;;;;;;;;;-146.27;100.00;64033.13;5090530;28;19968;-38
2022/06/17 03:48:34;;;;;;;;;;;;;;;-146.27;100.00;64033.13;5091198;28;19919;-38
2022/06/17 03:50:59;;;;;;;;;;;;;;;-146.27;100.00;64033.13;5091431;28;19912;-37
2022/06/17 03:53:26;;;;;;;;;;;;;;;-146.27;100.00;64033.13;5091270;28;20378;-38
2022/06/17 03:55:52;;;;;;;;;;;;;;;-146.27;100.00;64033.13;5091425;28;20013;-38
2022/06/17 03:58:18;;;;;;;;;;;;;;;-146.27;100.00;64033.13;5090893;28;20339;-38
2022/06/17 04:00:57;;;;;;;;;;;;;;;-146.27;100.00;64033.13;5091120;28;19916;-37
2022/06/17 04:03:25;;;;;;;;;;;;;;;-146.27;100.00;64033.13;5091340;28;19912;-37
2022/06/17 04:06:10;;;;;;;;;;;;;;;-146.27;100.00;64033.13;5091620;28;19912;-38
2022/06/17 04:08:54;;;;;;;;;;;;;;;-146.27;100.00;64033.13;5090595;28;19912;-38
2022/06/17 04:11:21;;;;;;;;;;;;;;;-146.27;100.00;64033.13;5091083;28;19913;-38
2022/06/17 04:13:46;;;;;;;;;;;;;;;-146.27;100.00;64033.13;5090505;28;19966;-37
2022/06/17 04:16:18;;;;;;;;;;;;;;;-146.27;100.00;64033.13;5090350;28;19919;-38
2022/06/17 04:18:43;;;;;;;;;;;;;;;-146.27;100.00;64033.13;5087124;28;20006;-38
2022/06/17 04:21:12;;;;;;;;;;;;;;;-146.27;100.00;64033.13;5089696;28;20008;-37
2022/06/17 04:23:37;;;;;;;;;;;;;;;-146.27;100.00;64033.13;5071415;28;19919;-38
2022/06/17 04:26:02;;;;;;;;;;;;;;;-146.27;100.00;64033.13;5070536;28;19999;-38
2022/06/17 04:28:33;;;;;;;;;;;;;;;-146.27;100.00;64033.13;5070888;28;19999;-37
2022/06/17 04:30:59;;;;;;;;;;;;;;;-146.27;100.00;64033.13;5090248;28;19916;-38
2022/06/17 04:33:30;;;;;;;;;;;;;;;-146.27;100.00;64033.13;5090169;28;19920;-38
2022/06/17 04:36:01;;;;;;;;;;;;;;;-146.27;100.00;64033.13;5090308;28;19916;-37
2022/06/17 04:38:27;;;;;;;;;;;;;;;-146.27;100.00;64033.13;5089981;28;20015;-37
2022/06/17 04:40:55;;;;;;;;;;;;;;;-146.27;100.00;64033.13;5089202;28;19924;-37
2022/06/17 04:43:29;;;;;;;;;;;;;;;-146.27;100.00;64033.13;5088183;28;19912;-37
2022/06/17 04:46:14;;;;;;;;;;;;;;;-146.27;100.00;64033.13;5088410;28;19911;-38
2022/06/17 04:48:39;;;;;;;;;;;;;;;-146.27;100.00;64033.13;5088098;28;19919;-37
2022/06/17 04:51:05;;;;;;;;;;;;;;;-146.27;100.00;64033.13;5088558;28;19912;-37
2022/06/17 04:53:31;;;;;;;;;;;;;;;-146.27;100.00;64033.13;5089605;28;19934;-38
2022/06/17 04:55:58;;;;;;;;;;;;;;;-146.27;100.00;64033.13;5089988;28;19999;-38
2022/06/17 04:58:24;;;;;;;;;;;;;;;-146.27;100.00;64033.13;5093584;28;19971;-37
2022/06/17 05:00:54;;;;;;;;;;;;;;;-146.27;100.00;64033.13;5093776;28;19916;-38
2022/06/17 05:03:20;;;;;;;;;;;;;;;-146.27;100.00;64033.13;5092901;28;19912;-37
2022/06/17 05:05:46;;;;;;;;;;;;;;;-146.27;100.00;64033.13;5092816;28;20325;-37
2022/06/17 05:08:19;;;;;;;;;;;;;;;-146.27;100.00;64033.13;5093373;28;19916;-38
2022/06/17 05:10:46;;;;;;;;;;;;;;;-146.27;100.00;64033.13;5093256;28;19919;-37
2022/06/17 05:13:18;;;;;;;;;;;;;;;-146.27;100.00;64033.13;5093585;28;19928;-38
2022/06/17 05:15:43;;;;;;;;;;;;;;;-146.27;100.00;64033.13;5092448;28;19995;-36
2022/06/17 05:18:09;;;;;;;;;;;;;;;-146.27;100.00;64033.13;5092100;28;20015;-37
2022/06/17 05:20:34;;;;;;;;;;;;;;;-146.27;100.00;64033.13;5091747;28;19931;-38
2022/06/17 05:23:02;;;;;;;;;;;;;;;-146.27;100.00;64033.13;5091012;28;19938;-37
2022/06/17 05:25:38;;;;;;;;;;;;;;;-146.27;100.00;64033.13;5092656;28;19923;-38
2022/06/17 05:28:06;;;;;;;;;;;;;;;-146.27;100.00;64033.13;5092267;28;19947;-37
2022/06/17 05:30:33;;;;;;;;;;;;;;;-146.27;100.00;64033.13;5092842;28;19919;-37
2022/06/17 05:32:58;;;;;;;;;;;;;;;-146.27;100.00;64033.13;5091944;28;19973;-37
2022/06/17 05:35:26;;;;;;;;;;;;;;;-146.27;100.00;64033.13;5092040;28;19917;-37
2022/06/17 05:37:51;;;;;;;;;;;;;;;-146.27;100.00;64033.13;5092062;28;20355;-37
2022/06/17 05:40:17;;;;;;;;;;;;;;;-146.27;100.00;64033.13;5092085;28;19920;-38
2022/06/17 05:42:43;;;;;;;;;;;;;;;-146.27;100.00;64033.13;5091742;28;20195;-37
2022/06/17 05:45:13;;;;;;;;;;;;;;;-146.27;100.00;64033.13;5091960;28;20371;-38
2022/06/17 05:47:38;;;;;;;;;;;;;;;-146.27;100.00;64033.13;5092017;28;19912;-38
2022/06/17 05:50:04;;;;;;;;;;;;;;;-146.27;100.00;64033.13;5089972;28;19996;-38
2022/06/17 05:52:29;;;;;;;;;;;;;;;-146.27;100.00;64033.13;5091744;28;20304;-38
2022/06/17 05:55:01;;;;;;;;;;;;;;;-146.27;100.00;64033.13;5091773;28;19912;-36
2022/06/17 05:57:26;;;;;;;;;;;;;;;-146.27;100.00;64033.13;5091865;28;20462;-37
2022/06/17 05:59:52;;;;;;;;;;;;;;;-146.27;100.00;64033.13;5091782;28;20002;-38
2022/06/17 06:02:17;;;;;;;;;;;;;;;-146.27;100.00;64033.13;5092250;28;19993;-38
2022/06/17 06:04:42;;;;;;;;;;;;;;;-146.27;100.00;64033.13;5091909;28;19918;-37
2022/06/17 06:07:09;;;;;;;;;;;;;;;-146.27;100.00;64033.13;5091672;28;19912;-38
2022/06/17 06:09:34;;;;;;;;;;;;;;;-146.27;100.00;64033.13;5090656;28;19912;-38
2022/06/17 06:11:59;;;;;;;;;;;;;;;-146.27;100.00;64033.13;5091998;28;19923;-38
2022/06/17 06:14:25;;;;;;;;;;;;;;;-146.27;100.00;64033.13;5091788;28;19912;-38
2022/06/17 06:16:50;;;;;;;;;;;;;;;-146.27;100.00;64033.13;5089763;28;20339;-37
2022/06/17 06:19:15;;;;;;;;;;;;;;;-146.27;100.00;64033.13;5091812;28;19965;-37
2022/06/17 06:21:41;;;;;;;;;;;;;;;-146.27;100.00;64033.13;5106415;28;19916;-37
2022/06/17 06:24:06;;;;;;;;;;;;;;;-146.27;100.00;64033.13;5111934;28;19923;-38
2022/06/17 06:26:31;;;;;;;;;;;;;;;-146.27;100.00;64033.13;5111570;28;19919;-37
2022/06/17 06:28:57;;;;;;;;;;;;;;;-146.27;100.00;64033.13;5111931;27;19988;-37
2022/06/17 06:31:24;;;;;;;;;;;;;;;-146.27;100.00;64033.13;5111643;28;19911;-38
2022/06/17 06:33:50;;;;;;;;;;;;;;;-146.27;100.00;64033.13;5111831;28;20450;-38
2022/06/17 06:36:15;;;;;;;;;;;;;;;-146.27;100.00;64033.13;5112145;28;19916;-38
2022/06/17 06:38:40;;;;;;;;;;;;;;;-146.27;100.00;64033.13;5112076;28;19968;-38
2022/06/17 06:41:06;;;;;;;;;;;;;;;-146.27;100.00;64033.13;5112667;28;19922;-38
2022/06/17 06:43:31;;;;;;;;;;;;;;;-146.27;100.00;64033.13;5112732;28;19919;-37
2022/06/17 06:45:56;;;;;;;;;;;;;;;-146.27;100.00;64033.13;5113078;28;19915;-38
2022/06/17 06:48:23;;;;;;;;;;;;;;;-146.27;100.00;64033.13;5096841;28;19916;-38
2022/06/17 06:50:49;;;;;;;;;;;;;;;-146.27;100.00;64033.13;5092554;28;19984;-37
2022/06/17 06:53:14;;;;;;;;;;;;;;;-146.27;100.00;64033.13;5096498;28;20325;-38
2022/06/17 06:55:39;;;;;;;;;;;;;;;-146.27;100.00;64033.13;5098614;28;19954;-37
2022/06/17 06:58:12;;;;;;;;;;;;;;;-146.27;100.00;64033.13;5103552;28;19916;-38
2022/06/17 07:00:39;;;;;;;;;;;;;;;-146.27;100.00;64033.13;5099936;28;19931;-38
2022/06/17 07:03:05;;;;;;;;;;;;;;;-146.27;100.00;64033.13;5100956;28;19912;-37
2022/06/17 07:05:32;;;;;;;;;;;;;;;-146.27;100.00;64033.13;5098749;28;20274;-38
2022/06/17 07:07:57;;;;;;;;;;;;;;;-146.27;100.00;64033.13;5091473;28;19912;-36
2022/06/17 07:10:25;;;;;;;;;;;;;;;-146.27;100.00;64033.13;5107641;28;20299;-37
2022/06/17 07:12:51;;;;;;;;;;;;;;;-146.27;100.00;64033.13;5108679;28;19936;-38
2022/06/17 07:15:16;;;;;;;;;;;;;;;-146.27;100.00;64033.13;5096554;28;19911;-37
2022/06/17 07:18:00;;;;;;;;;;;;;;;-146.27;100.00;64033.13;5103728;28;20024;-51
2022/06/17 07:20:26;;;;;;;;;;;;;;;-146.27;100.00;64033.13;5097405;28;20333;-50
2022/06/17 07:22:51;;;;;;;;;;;;;;;-146.27;100.00;64033.13;5111645;28;20312;-50
2022/06/17 07:25:17;;;;;;;;;;;;;;;-146.27;100.00;64033.13;5094362;28;19937;-52
2022/06/17 07:27:43;;;;;;;;;;;;;;;-146.27;100.00;64033.13;5101708;28;20003;-51
2022/06/17 07:30:13;;;;;;;;;;;;;;;-146.27;100.00;64033.13;5108286;28;20003;-52
2022/06/17 07:32:38;;;;;;;;;;;;;;;-146.27;100.00;64033.13;5094655;28;19969;-52
2022/06/17 07:35:04;;;;;;;;;;;;;;;-146.27;100.00;64033.13;5103602;28;19975;-52
2022/06/17 07:40:13;;;;;;;;;;;;;;;-146.27;100.00;64033.13;5088901;28;20628;-52
2022/06/17 07:42:38;;;;;;;;;;;;;;;-146.27;100.00;64033.13;5090477;28;19912;-52
2022/06/17 07:45:24;;;;;;;;;;;;;;;-146.27;100.00;64033.13;5091300;28;19935;-48
2022/06/17 07:47:50;;;;;;;;;;;;;;;-146.27;100.00;64033.13;5090546;28;19935;-52
2022/06/17 07:50:19;;;;;;;;;;;;;;;-146.27;100.00;64033.13;5091083;28;20023;-50
2022/06/17 07:52:44;;;;;;;;;;;;;;;-146.27;100.00;64033.13;5090587;28;20410;-47
2022/06/17 07:55:09;;;;;;;;;;;;;;;-146.27;100.00;64033.13;5090654;28;19912;-48
2022/06/17 07:57:35;;;;;;;;;;;;;;;-146.27;100.00;64033.13;5090792;28;19970;-51
2022/06/17 08:00:00;;;;;;;;;;;;;;;-146.27;100.00;64033.13;5090223;28;19919;-49
2022/06/17 08:02:25;;;;;;;;;;;;;;;-146.27;100.00;64033.13;5090855;28;19912;-51
2022/06/17 08:04:51;;;;;;;;;;;;;;;-146.27;100.00;64033.13;5090404;28;20387;-50
2022/06/17 08:07:17;;;;;;;;;;;;;;;-146.27;100.00;64033.13;5089890;28;19942;-51
2022/06/17 08:09:42;;;;;;;;;;;;;;;-146.27;100.00;64033.13;5089132;28;19922;-52
2022/06/17 08:12:11;;;;;;;;;;;;;;;-146.27;100.00;64033.13;5096518;28;20006;-53
2022/06/17 08:14:43;;;;;;;;;;;;;;;-146.27;100.00;64033.13;5096430;28;19931;-53
2022/06/17 08:17:08;;;;;;;;;;;;;;;-146.27;100.00;64033.13;5090239;28;19943;-53
2022/06/17 08:19:34;;;;;;;;;;;;;;;-146.27;100.00;64033.13;5100792;28;20402;-53
2022/06/17 08:21:59;;;;;;;;;;;;;;;-146.27;100.00;64033.13;5092153;28;20014;-53
2022/06/17 08:24:24;;;;;;;;;;;;;;;-146.27;100.00;64033.13;5092024;28;19916;-52
2022/06/17 08:26:49;;;;;;;;;;;;;;;-146.27;100.00;64033.13;5096307;28;20015;-52
2022/06/17 08:29:15;;;;;;;;;;;;;;;-146.27;100.00;64033.13;5089712;28;19920;-52
2022/06/17 08:31:40;;;;;;;;;;;;;;;-146.27;100.00;64033.13;5091389;28;20284;-52
2022/06/17 08:34:05;;;;;;;;;;;;;;;-146.27;100.00;64033.13;5094944;28;20022;-52
2022/06/17 08:36:31;;;;;;;;;;;;;;;-146.27;100.00;64033.13;5113515;28;19935;-52
2022/06/17 08:39:01;;;;;;;;;;;;;;;-146.27;100.00;64033.13;5114442;28;20078;-53
2022/06/17 08:41:28;;;;;;;;;;;;;;;-146.27;100.00;64033.13;5114899;28;19962;-53
2022/06/17 08:44:08;;;;;;;;;;;;;;;-146.27;100.00;64033.13;5114701;28;19911;-52
2022/06/17 08:46:33;;;;;;;;;;;;;;;-146.27;100.00;64033.13;5114235;28;19999;-51
2022/06/17 08:49:02;;;;;;;;;;;;;;;-146.27;100.00;64033.13;5114471;28;19947;-51
2022/06/17 08:51:36;;;;;;;;;;;;;;;-146.27;100.00;64033.13;5114307;28;19915;-53
2022/06/17 08:54:20;;;;;;;;;;;;;;;-146.27;100.00;64033.13;5114409;28;20025;-51
2022/06/17 08:56:48;;;;;;;;;;;;;;;-146.27;100.00;64033.13;5114166;28;19912;-51
2022/06/17 08:59:39;;;;;;;;;;;;;;;-146.27;100.00;64033.13;5114465;28;19913;-53
2022/06/17 09:02:07;;;;;;;;;;;;;;;-146.27;100.00;64033.13;5114146;28;20372;-52
2022/06/17 09:04:51;;;;;;;;;;;;;;;-146.27;100.00;64033.13;5114175;28;20307;-52
2022/06/17 09:07:22;;;;;;;;;;;;;;;-146.27;100.00;64033.13;5113976;28;19912;-52
2022/06/17 09:10:03;;;;;;;;;;;;;;;-146.27;100.00;64033.13;5114506;28;19912;-51
2022/06/17 09:12:48;;;;;;;;;;;;;;;-146.27;100.00;64033.13;5114342;28;19951;-51
2022/06/17 09:15:22;;;;;;;;;;;;;;;-146.27;100.00;64033.13;5113856;28;19994;-51
2022/06/17 09:17:56;;;;;;;;;;;;;;;-146.27;100.00;64033.13;5114060;28;19912;-52
2022/06/17 09:20:25;;;;;;;;;;;;;;;-146.27;100.00;64033.13;5113888;28;19915;-52
2022/06/17 09:22:56;;;;;;;;;;;;;;;-146.27;100.00;64033.13;5113789;28;19912;-52
2022/06/17 09:25:26;;;;;;;;;;;;;;;-146.27;100.00;64033.13;5098133;28;19919;-52
2022/06/17 09:27:54;;;;;;;;;;;;;;;-146.27;100.00;64033.13;5093745;28;19912;-53
2022/06/17 09:30:25;;;;;;;;;;;;;;;-146.27;100.00;64033.13;5094109;28;19961;-52
2022/06/17 09:33:10;;;;;;;;;;;;;;;-146.27;100.00;64033.13;5093908;28;20014;-51
2022/06/17 09:35:39;;;;;;;;;;;;;;;-146.27;100.00;64033.13;5093587;28;20435;-53
2022/06/17 09:38:07;;;;;;;;;;;;;;;-146.27;100.00;64033.13;5092098;28;19970;-52
2022/06/17 09:40:45;;;;;;;;;;;;;;;-146.27;100.00;64033.13;5092542;28;19920;-50
2022/06/17 09:43:17;;;;;;;;;;;;;;;-146.27;100.00;64033.13;5092162;28;20023;-52
2022/06/17 09:45:49;;;;;;;;;;;;;;;-146.27;100.00;64033.13;5091773;28;19923;-53
2022/06/17 09:48:20;;;;;;;;;;;;;;;-146.27;100.00;64033.13;5092997;28;20011;-52
2022/06/17 09:50:48;;;;;;;;;;;;;;;-146.27;100.00;64033.13;5091763;28;19987;-51
2022/06/17 09:53:21;;;;;;;;;;;;;;;-146.27;100.00;64033.13;5091296;28;19935;-52
2022/06/17 09:55:48;;;;;;;;;;;;;;;-146.27;100.00;64033.13;5091962;28;19931;-52
2022/06/17 09:58:29;;;;;;;;;;;;;;;-146.27;100.00;64033.13;5091797;28;19912;-53
2022/06/17 10:00:55;;;;;;;;;;;;;;;-146.27;100.00;64033.13;5091654;28;19916;-51
2022/06/17 10:03:31;;;;;;;;;;;;;;;-146.27;100.00;64033.13;5091859;28;19913;-53
2022/06/17 10:05:56;;;;;;;;;;;;;;;-146.27;100.00;64033.13;5092675;28;19919;-51
2022/06/17 10:08:25;;;;;;;;;;;;;;;-146.27;100.00;64033.13;5092728;28;19965;-53
2022/06/17 10:10:50;;;;;;;;;;;;;;;-146.27;100.00;64033.13;5092418;28;19919;-52
2022/06/17 10:13:19;;;;;;;;;;;;;;;-146.27;100.00;64033.13;5092841;28;19912;-53
2022/06/17 10:19:08;;;;;;;;;;;;;;;-146.27;100.00;64033.13;5092754;28;19919;-52
2022/06/17 10:21:36;;;;;;;;;;;;;;;-146.27;100.00;64033.13;5091844;28;19916;-51
2022/06/17 10:24:26;;;;;;;;;;;;;;;-146.27;100.00;64033.13;5092428;28;20376;-52
2022/06/17 10:27:10;;;;;;;;;;;;;;;-146.27;100.00;64033.13;5092217;28;19999;-52
2022/06/17 10:29:35;;;;;;;;;;;;;;;-146.27;100.00;64033.13;5092744;28;19919;-50
2022/06/17 10:32:01;;;;;;;;;;;;;;;-146.27;100.00;64033.13;5092213;28;19916;-48
2022/06/17 10:34:36;;;;;;;;;;;;;;;-146.27;100.00;64033.13;5091908;28;19931;-49
2022/06/17 10:37:03;;;;;;;;;;;;;;;-146.27;100.00;64033.13;5092577;28;20011;-51
2022/06/17 10:39:31;;;;;;;;;;;;;;;-146.27;100.00;64033.13;5092360;28;20310;-52
2022/06/17 10:41:57;;;;;;;;;;;;;;;-146.27;100.00;64033.13;5091956;28;20226;-53
2022/06/17 10:44:23;;;;;;;;;;;;;;;-146.27;100.00;64033.13;5091345;28;19912;-51
2022/06/17 10:46:53;;;;;;;;;;;;;;;-146.27;100.00;64033.13;5092193;28;20069;-53
2022/06/17 10:49:26;;;;;;;;;;;;;;;-146.27;100.00;64033.13;5092047;28;19919;-52
2022/06/17 10:51:53;;;;;;;;;;;;;;;-146.27;100.00;64033.13;5091591;28;20256;-51
2022/06/17 10:54:18;;;;;;;;;;;;;;;-146.27;100.00;64033.13;5091370;28;19912;-52
2022/06/17 10:56:50;;;;;;;;;;;;;;;-146.27;100.00;64033.13;5091882;28;20329;-53
2022/06/17 10:59:28;;;;;;;;;;;;;;;-146.27;100.00;64033.13;5091694;28;20375;-52
2022/06/17 11:01:56;;;;;;;;;;;;;;;-146.27;100.00;64033.13;5091559;28;19920;-51
2022/06/17 11:04:24;;;;;;;;;;;;;;;-146.27;100.00;64033.13;5091449;28;19923;-52
2022/06/17 11:06:53;;;;;;;;;;;;;;;-146.27;100.00;64033.13;5091953;28;19918;-52
2022/06/17 11:09:44;;;;;;;;;;;;;;;-146.27;100.00;64033.13;5091467;28;20359;-52
2022/06/17 11:12:22;;;;;;;;;;;;;;;-146.27;100.00;64033.13;5088574;28;20006;-52
2022/06/17 11:14:55;;;;;;;;;;;;;;;-146.27;100.00;64033.13;5091183;28;19951;-52
2022/06/17 11:17:23;;;;;;;;;;;;;;;-146.27;100.00;64033.13;5091509;28;19912;-52
2022/06/17 11:19:51;;;;;;;;;;;;;;;-146.27;100.00;64033.13;5091331;28;19920;-52
2022/06/17 11:22:29;;;;;;;;;;;;;;;-146.27;100.00;64033.13;5110894;28;19980;-52
2022/06/17 11:24:57;;;;;;;;;;;;;;;-146.27;100.00;64033.13;5098993;28;19912;-52
2022/06/17 11:27:26;;;;;;;;;;;;;;;-146.27;100.00;64033.13;5089956;28;19912;-52
2022/06/17 11:29:53;;;;;;;;;;;;;;;-146.27;100.00;64033.13;5091406;28;19912;-52
2022/06/17 11:32:30;;;;;;;;;;;;;;;-146.27;100.00;64033.13;5091105;28;19912;-52
2022/06/17 11:34:58;;;;;;;;;;;;;;;-146.27;100.00;64033.13;5090786;28;20399;-52
2022/06/17 11:37:25;;;;;;;;;;;;;;;-146.27;100.00;64033.13;5090535;28;20407;-52
2022/06/17 11:40:07;;;;;;;;;;;;;;;-146.27;100.00;64033.13;5091633;28;20007;-52
2022/06/17 11:42:33;;;;;;;;;;;;;;;-146.27;100.00;64033.13;5090679;28;19970;-54
2022/06/17 11:45:03;;;;;;;;;;;;;;;-146.27;100.00;64033.13;5091005;28;19963;-52
2022/06/17 11:47:34;;;;;;;;;;;;;;;-146.27;100.00;64033.13;5090326;28;19912;-52
2022/06/17 11:50:10;;;;;;;;;;;;;;;-146.27;100.00;64033.13;5091222;28;19969;-52
2022/06/17 11:52:35;;;;;;;;;;;;;;;-146.27;100.00;64033.13;5090531;28;19912;-52
2022/06/17 11:55:02;;;;;;;;;;;;;;;-146.27;100.00;64033.13;5090481;28;19923;-52
2022/06/17 11:57:30;;;;;;;;;;;;;;;-146.27;100.00;64033.13;5090840;28;19912;-52
2022/06/17 12:00:00;;;;;;;;;;;;;;;-146.27;100.00;64033.13;5091506;28;19916;-52
2022/06/17 12:02:26;;;;;;;;;;;;;;;-146.27;100.00;64033.13;5091251;28;19923;-52
2022/06/17 12:04:55;;;;;;;;;;;;;;;-146.27;100.00;64033.13;5090897;28;19912;-53
2022/06/17 12:07:20;;;;;;;;;;;;;;;-146.27;100.00;64033.13;5089823;28;20276;-50
2022/06/17 12:09:48;;;;;;;;;;;;;;;-146.27;100.00;64033.13;5090219;28;20485;-53
2022/06/17 12:12:16;;;;;;;;;;;;;;;-146.27;100.00;64033.13;5090589;28;19919;-51
2022/06/17 12:14:50;;;;;;;;;;;;;;;-146.27;100.00;64033.13;5090457;28;20394;-51
2022/06/17 12:17:17;;;;;;;;;;;;;;;-146.27;100.00;64033.13;5090255;28;19916;-52
2022/06/17 12:19:42;;;;;;;;;;;;;;;-146.27;100.00;64033.13;5090325;28;19919;-53
2022/06/17 12:22:11;;;;;;;;;;;;;;;-146.27;100.00;64033.13;5090477;28;20010;-51
2022/06/17 12:24:48;;;;;;;;;;;;;;;-146.27;100.00;64033.13;5090441;28;20384;-49
2022/06/17 12:27:23;;;;;;;;;;;;;;;-146.27;100.00;64033.13;5090535;28;19966;-52
2022/06/17 12:29:51;;;;;;;;;;;;;;;-146.27;100.00;64033.13;5090432;28;19912;-51
2022/06/17 12:32:24;;;;;;;;;;;;;;;-146.27;100.00;64033.13;5089832;28;19920;-51